PWSweather.com
Personal Weather Stations
Station Observations
COONRAPIDS
Minneapolis, MN 55433

Minneapolis, MN 55433

Lat: 45.187721, Lon: -93.36828

Elevation: 898

Station Type: Davis Vantage Pro 2

High Low Average
Temperature 37.8°F3.2°C 19.8°F-6.8°C 29.5°F-1.4°C
Dew Point 25.9°F-3.4°C 7.5°F-13.6°C 13.5°F-10.3°C
Winds 3.5 mph 5.6 kmh Calm Calm 1.0 mph W1.6 kmh W
Wind Gusts 8.1 mph13.0 kmh -- 2.0 mph3.2 kmh
Humidity 76% 31% 53%
Pressure 30.41 in1029.8 mb 30.27 in1025.1 mb -
Precipitation 0.00 in0.0 mm - -
Hour Temp Dew Point Humidity Winds Wind Gusts Pressure Precip Precip Rate Daily Precip Total
12:00 AM 25.2°F-3.8°C 8.2°F-13.2°C 48% Calm Calm 2.3 mph3.7 kmh 30.36 in1028.1 mb - 0.00 in0.0 mm 0.00 in0.0 mm
12:10 AM 25.1°F-3.8°C 8.6°F-13.0°C 49% Calm Calm -- 30.36 in1028.1 mb - 0.00 in0.0 mm 0.00 in0.0 mm
12:20 AM 24.9°F-3.9°C 8.4°F-13.1°C 49% Calm Calm -- 30.36 in1028.1 mb - 0.00 in0.0 mm 0.00 in0.0 mm
12:30 AM 24.8°F-4.0°C 8.8°F-12.9°C 50% Calm Calm 3.5 mph5.6 kmh 30.37 in1028.4 mb - 0.00 in0.0 mm 0.00 in0.0 mm
12:40 AM 24.7°F-4.1°C 9.1°F-12.7°C 51% 1.2 mph NW1.9 kmh NW 4.6 mph7.4 kmh 30.37 in1028.4 mb - 0.00 in0.0 mm 0.00 in0.0 mm
12:50 AM 24.6°F-4.1°C 9.5°F-12.5°C 52% 1.2 mph NW1.9 kmh NW 3.5 mph5.6 kmh 30.37 in1028.4 mb - 0.00 in0.0 mm 0.00 in0.0 mm
01:00 AM 24.5°F-4.2°C 9.4°F-12.6°C 52% Calm Calm 1.2 mph1.9 kmh 30.37 in1028.4 mb - 0.00 in0.0 mm 0.00 in0.0 mm
01:10 AM 24.3°F-4.3°C 9.6°F-12.4°C 53% Calm Calm -- 30.37 in1028.4 mb - 0.00 in0.0 mm 0.00 in0.0 mm
01:20 AM 24.2°F-4.3°C 9.9°F-12.3°C 54% Calm Calm 2.3 mph3.7 kmh 30.37 in1028.4 mb - 0.00 in0.0 mm 0.00 in0.0 mm
01:30 AM 24.0°F-4.4°C 9.7°F-12.4°C 54% 1.2 mph NW1.9 kmh NW 1.2 mph1.9 kmh 30.37 in1028.4 mb - 0.00 in0.0 mm 0.00 in0.0 mm
01:40 AM 23.9°F-4.5°C 10.1°F-12.2°C 55% Calm Calm -- 30.37 in1028.4 mb - 0.00 in0.0 mm 0.00 in0.0 mm
01:50 AM 23.8°F-4.6°C 10.0°F-12.2°C 55% Calm Calm -- 30.37 in1028.4 mb - 0.00 in0.0 mm 0.00 in0.0 mm
02:00 AM 23.6°F-4.7°C 10.2°F-12.1°C 56% Calm Calm 1.2 mph1.9 kmh 30.37 in1028.4 mb - 0.00 in0.0 mm 0.00 in0.0 mm
02:10 AM 23.6°F-4.7°C 10.6°F-11.9°C 57% Calm Calm 2.3 mph3.7 kmh 30.37 in1028.4 mb - 0.00 in0.0 mm 0.00 in0.0 mm
02:20 AM 23.6°F-4.7°C 10.6°F-11.9°C 57% Calm Calm -- 30.37 in1028.4 mb - 0.00 in0.0 mm 0.00 in0.0 mm
02:30 AM 23.5°F-4.7°C 10.9°F-11.7°C 58% Calm Calm 2.3 mph3.7 kmh 30.37 in1028.4 mb - 0.00 in0.0 mm 0.00 in0.0 mm
02:40 AM 23.5°F-4.7°C 10.9°F-11.7°C 58% Calm Calm -- 30.37 in1028.4 mb - 0.00 in0.0 mm 0.00 in0.0 mm
02:50 AM 23.3°F-4.8°C 10.7°F-11.8°C 58% Calm Calm -- 30.37 in1028.4 mb - 0.00 in0.0 mm 0.00 in0.0 mm
03:00 AM 23.2°F-4.9°C 10.6°F-11.9°C 58% Calm Calm 3.5 mph5.6 kmh 30.37 in1028.4 mb - 0.00 in0.0 mm 0.00 in0.0 mm
03:10 AM 23.3°F-4.8°C 10.7°F-11.8°C 58% Calm Calm 3.5 mph5.6 kmh 30.37 in1028.4 mb - 0.00 in0.0 mm 0.00 in0.0 mm
03:20 AM 23.1°F-4.9°C 10.9°F-11.7°C 59% Calm Calm -- 30.37 in1028.4 mb - 0.00 in0.0 mm 0.00 in0.0 mm
03:30 AM 23.0°F-5.0°C 11.2°F-11.6°C 60% 1.2 mph NW1.9 kmh NW -- 30.38 in1028.8 mb - 0.00 in0.0 mm 0.00 in0.0 mm
03:40 AM 22.9°F-5.1°C 11.1°F-11.6°C 60% Calm Calm 2.3 mph3.7 kmh 30.38 in1028.8 mb - 0.00 in0.0 mm 0.00 in0.0 mm
03:50 AM 22.7°F-5.2°C 11.3°F-11.5°C 61% Calm Calm -- 30.38 in1028.8 mb - 0.00 in0.0 mm 0.00 in0.0 mm
04:00 AM 22.6°F-5.2°C 11.2°F-11.6°C 61% Calm Calm 3.5 mph5.6 kmh 30.38 in1028.8 mb - 0.00 in0.0 mm 0.00 in0.0 mm
04:10 AM 22.5°F-5.3°C 11.4°F-11.4°C 62% Calm Calm -- 30.38 in1028.8 mb - 0.00 in0.0 mm 0.00 in0.0 mm
04:20 AM 22.5°F-5.3°C 11.8°F-11.2°C 63% Calm Calm -- 30.38 in1028.8 mb - 0.00 in0.0 mm 0.00 in0.0 mm
04:30 AM 22.4°F-5.3°C 11.7°F-11.3°C 63% Calm Calm -- 30.38 in1028.8 mb - 0.00 in0.0 mm 0.00 in0.0 mm
04:40 AM 22.2°F-5.4°C 11.9°F-11.2°C 64% Calm Calm -- 30.38 in1028.8 mb - 0.00 in0.0 mm 0.00 in0.0 mm
04:50 AM 22.0°F-5.6°C 12.0°F-11.1°C 65% Calm Calm -- 30.39 in1029.1 mb - 0.00 in0.0 mm 0.00 in0.0 mm
05:00 AM 21.9°F-5.6°C 12.3°F-10.9°C 66% Calm Calm -- 30.39 in1029.1 mb - 0.00 in0.0 mm 0.00 in0.0 mm
05:10 AM 21.6°F-5.8°C 12.3°F-10.9°C 67% Calm Calm -- 30.39 in1029.1 mb - 0.00 in0.0 mm 0.00 in0.0 mm
05:20 AM 21.5°F-5.8°C 12.2°F-11.0°C 67% Calm Calm -- 30.39 in1029.1 mb - 0.00 in0.0 mm 0.00 in0.0 mm
05:30 AM 21.2°F-6.0°C 12.3°F-10.9°C 68% Calm Calm -- 30.39 in1029.1 mb - 0.00 in0.0 mm 0.00 in0.0 mm
05:40 AM 20.9°F-6.2°C 12.3°F-10.9°C 69% Calm Calm -- 30.40 in1029.5 mb - 0.00 in0.0 mm 0.00 in0.0 mm
05:50 AM 20.5°F-6.4°C 12.3°F-10.9°C 70% Calm Calm -- 30.39 in1029.1 mb - 0.00 in0.0 mm 0.00 in0.0 mm
06:00 AM 20.3°F-6.5°C 12.4°F-10.9°C 71% Calm Calm -- 30.40 in1029.5 mb - 0.00 in0.0 mm 0.00 in0.0 mm
06:10 AM 20.0°F-6.7°C 12.4°F-10.9°C 72% Calm Calm -- 30.40 in1029.5 mb - 0.00 in0.0 mm 0.00 in0.0 mm
06:20 AM 19.8°F-6.8°C 12.5°F-10.8°C 73% Calm Calm -- 30.40 in1029.5 mb - 0.00 in0.0 mm 0.00 in0.0 mm
06:30 AM 19.8°F-6.8°C 12.5°F-10.8°C 73% Calm Calm -- 30.40 in1029.5 mb - 0.00 in0.0 mm 0.00 in0.0 mm
06:40 AM 20.5°F-6.4°C 13.5°F-10.3°C 74% Calm Calm -- 30.40 in1029.5 mb - 0.00 in0.0 mm 0.00 in0.0 mm
06:50 AM 21.5°F-5.8°C 14.1°F-9.9°C 73% Calm Calm -- 30.41 in1029.8 mb - 0.00 in0.0 mm 0.00 in0.0 mm
07:00 AM 22.4°F-5.3°C 14.4°F-9.8°C 71% Calm Calm -- 30.41 in1029.8 mb - 0.00 in0.0 mm 0.00 in0.0 mm
07:10 AM 23.3°F-4.8°C 14.6°F-9.7°C 69% Calm Calm -- 30.41 in1029.8 mb - 0.00 in0.0 mm 0.00 in0.0 mm
07:20 AM 24.4°F-4.2°C 15.0°F-9.4°C 67% Calm Calm -- 30.41 in1029.8 mb - 0.00 in0.0 mm 0.00 in0.0 mm
07:30 AM 25.3°F-3.7°C 15.2°F-9.3°C 65% Calm Calm -- 30.41 in1029.8 mb - 0.00 in0.0 mm 0.00 in0.0 mm
07:40 AM 26.1°F-3.3°C 14.8°F-9.6°C 62% Calm Calm -- 30.41 in1029.8 mb - 0.00 in0.0 mm 0.00 in0.0 mm
07:50 AM 26.4°F-3.1°C 15.1°F-9.4°C 62% Calm Calm -- 30.41 in1029.8 mb - 0.00 in0.0 mm 0.00 in0.0 mm
08:00 AM 27.2°F-2.7°C 15.2°F-9.3°C 60% 1.2 mph NNW1.9 kmh NNW 2.3 mph3.7 kmh 30.41 in1029.8 mb - 0.00 in0.0 mm 0.00 in0.0 mm
08:10 AM 28.1°F-2.2°C 15.2°F-9.3°C 58% Calm Calm -- 30.40 in1029.5 mb - 0.00 in0.0 mm 0.00 in0.0 mm
08:20 AM 28.8°F-1.8°C 14.6°F-9.7°C 55% Calm Calm -- 30.40 in1029.5 mb - 0.00 in0.0 mm 0.00 in0.0 mm
08:30 AM 29.5°F-1.4°C 14.8°F-9.6°C 54% 1.2 mph NW1.9 kmh NW 3.5 mph5.6 kmh 30.41 in1029.8 mb - 0.00 in0.0 mm 0.00 in0.0 mm
08:40 AM 29.8°F-1.2°C 13.9°F-10.1°C 51% Calm Calm -- 30.40 in1029.5 mb - 0.00 in0.0 mm 0.00 in0.0 mm
08:50 AM 30.3°F-0.9°C 13.9°F-10.1°C 50% 1.2 mph W1.9 kmh W 3.5 mph5.6 kmh 30.40 in1029.5 mb - 0.00 in0.0 mm 0.00 in0.0 mm
09:00 AM 30.8°F-0.7°C 12.9°F-10.6°C 47% Calm Calm 2.3 mph3.7 kmh 30.40 in1029.5 mb - 0.00 in0.0 mm 0.00 in0.0 mm
09:10 AM 31.3°F-0.4°C 13.4°F-10.3°C 47% Calm Calm 2.3 mph3.7 kmh 30.39 in1029.1 mb - 0.00 in0.0 mm 0.00 in0.0 mm
09:20 AM 32.3°F0.2°C 12.8°F-10.7°C 44% Calm Calm 3.5 mph5.6 kmh 30.39 in1029.1 mb - 0.00 in0.0 mm 0.00 in0.0 mm
09:30 AM 32.6°F0.3°C 12.5°F-10.8°C 43% Calm Calm -- 30.39 in1029.1 mb - 0.00 in0.0 mm 0.00 in0.0 mm
09:40 AM 32.9°F0.5°C 12.8°F-10.7°C 43% Calm Calm -- 30.39 in1029.1 mb - 0.00 in0.0 mm 0.00 in0.0 mm
09:50 AM 33.4°F0.8°C 9.9°F-12.3°C 37% 3.5 mph WSW5.6 kmh WSW 3.5 mph5.6 kmh 30.39 in1029.1 mb - 0.00 in0.0 mm 0.00 in0.0 mm
10:00 AM 33.3°F0.7°C 9.8°F-12.3°C 37% 1.2 mph WSW1.9 kmh WSW 3.5 mph5.6 kmh 30.38 in1028.8 mb - 0.00 in0.0 mm 0.00 in0.0 mm
10:10 AM 33.6°F0.9°C 8.8°F-12.9°C 35% 1.2 mph W1.9 kmh W 2.3 mph3.7 kmh 30.39 in1029.1 mb - 0.00 in0.0 mm 0.00 in0.0 mm
10:20 AM 34.4°F1.3°C 8.2°F-13.2°C 33% 3.5 mph SW5.6 kmh SW 8.1 mph13.0 kmh 30.38 in1028.8 mb - 0.00 in0.0 mm 0.00 in0.0 mm
10:30 AM 34.9°F1.6°C 8.0°F-13.3°C 32% 2.3 mph W3.7 kmh W 4.6 mph7.4 kmh 30.37 in1028.4 mb - 0.00 in0.0 mm 0.00 in0.0 mm
10:40 AM 35.2°F1.8°C 7.5°F-13.6°C 31% Calm Calm -- 30.37 in1028.4 mb - 0.00 in0.0 mm 0.00 in0.0 mm
10:50 AM 35.2°F1.8°C 8.2°F-13.2°C 32% 2.3 mph WNW3.7 kmh WNW 5.8 mph9.3 kmh 30.37 in1028.4 mb - 0.00 in0.0 mm 0.00 in0.0 mm
11:00 AM 35.7°F2.1°C 8.0°F-13.3°C 31% 1.2 mph W1.9 kmh W 6.9 mph11.1 kmh 30.37 in1028.4 mb - 0.00 in0.0 mm 0.00 in0.0 mm
11:10 AM 35.9°F2.2°C 8.9°F-12.8°C 32% 1.2 mph S1.9 kmh S 3.5 mph5.6 kmh 30.36 in1028.1 mb - 0.00 in0.0 mm 0.00 in0.0 mm
11:20 AM 35.8°F2.1°C 9.5°F-12.5°C 33% 1.2 mph WSW1.9 kmh WSW 3.5 mph5.6 kmh 30.36 in1028.1 mb - 0.00 in0.0 mm 0.00 in0.0 mm
11:30 AM 35.9°F2.2°C 8.9°F-12.8°C 32% Calm Calm -- 30.35 in1027.8 mb - 0.00 in0.0 mm 0.00 in0.0 mm
11:40 AM 36.3°F2.4°C 10.6°F-11.9°C 34% Calm Calm 2.3 mph3.7 kmh 30.35 in1027.8 mb - 0.00 in0.0 mm 0.00 in0.0 mm
11:50 AM 36.6°F2.6°C 9.4°F-12.6°C 32% Calm Calm 3.5 mph5.6 kmh 30.35 in1027.8 mb - 0.00 in0.0 mm 0.00 in0.0 mm
12:00 PM 36.3°F2.4°C 9.9°F-12.3°C 33% 3.5 mph WNW5.6 kmh WNW 4.6 mph7.4 kmh 30.35 in1027.8 mb - 0.00 in0.0 mm 0.00 in0.0 mm
12:10 PM 37.3°F2.9°C 10.8°F-11.8°C 33% 2.3 mph NW3.7 kmh NW 5.8 mph9.3 kmh 30.34 in1027.4 mb - 0.00 in0.0 mm 0.00 in0.0 mm
12:20 PM 37.2°F2.9°C 10.7°F-11.8°C 33% Calm Calm -- 30.34 in1027.4 mb - 0.00 in0.0 mm 0.00 in0.0 mm
12:30 PM 37.4°F3.0°C 10.2°F-12.1°C 32% Calm Calm -- 30.34 in1027.4 mb - 0.00 in0.0 mm 0.00 in0.0 mm
12:40 PM 37.4°F3.0°C 10.9°F-11.7°C 33% 2.3 mph WSW3.7 kmh WSW 5.8 mph9.3 kmh 30.34 in1027.4 mb - 0.00 in0.0 mm 0.00 in0.0 mm
12:50 PM 37.1°F2.8°C 11.3°F-11.5°C 34% Calm Calm -- 30.33 in1027.1 mb - 0.00 in0.0 mm 0.00 in0.0 mm
01:00 PM 37.1°F2.8°C 10.6°F-11.9°C 33% Calm Calm -- 30.33 in1027.1 mb - 0.00 in0.0 mm 0.00 in0.0 mm
01:10 PM 37.2°F2.9°C 12.0°F-11.1°C 35% Calm Calm -- 30.32 in1026.8 mb - 0.00 in0.0 mm 0.00 in0.0 mm
01:20 PM 37.3°F2.9°C 12.2°F-11.0°C 35% 3.5 mph SW5.6 kmh SW 3.5 mph5.6 kmh 30.32 in1026.8 mb - 0.00 in0.0 mm 0.00 in0.0 mm
01:30 PM 37.6°F3.1°C 13.0°F-10.6°C 36% 2.3 mph WSW3.7 kmh WSW 5.8 mph9.3 kmh 30.31 in1026.4 mb - 0.00 in0.0 mm 0.00 in0.0 mm
01:40 PM 37.8°F3.2°C 14.4°F-9.8°C 38% Calm Calm -- 30.31 in1026.4 mb - 0.00 in0.0 mm 0.00 in0.0 mm
01:50 PM 37.6°F3.1°C 14.2°F-9.9°C 38% 1.2 mph SW1.9 kmh SW 5.8 mph9.3 kmh 30.31 in1026.4 mb - 0.00 in0.0 mm 0.00 in0.0 mm
02:00 PM 37.2°F2.9°C 13.9°F-10.1°C 38% 2.3 mph SW3.7 kmh SW 4.6 mph7.4 kmh 30.30 in1026.1 mb - 0.00 in0.0 mm 0.00 in0.0 mm
02:10 PM 36.9°F2.7°C 15.4°F-9.2°C 41% 2.3 mph SSW3.7 kmh SSW 3.5 mph5.6 kmh 30.30 in1026.1 mb - 0.00 in0.0 mm 0.00 in0.0 mm
02:20 PM 36.8°F2.7°C 16.4°F-8.7°C 43% 3.5 mph SW5.6 kmh SW 4.6 mph7.4 kmh 30.30 in1026.1 mb - 0.00 in0.0 mm 0.00 in0.0 mm
02:30 PM 36.4°F2.4°C 16.0°F-8.9°C 43% Calm Calm -- 30.30 in1026.1 mb - 0.00 in0.0 mm 0.00 in0.0 mm
02:40 PM 36.5°F2.5°C 17.1°F-8.3°C 45% 2.3 mph WSW3.7 kmh WSW 4.6 mph7.4 kmh 30.30 in1026.1 mb - 0.00 in0.0 mm 0.00 in0.0 mm
02:50 PM 36.5°F2.5°C 18.2°F-7.7°C 47% 1.2 mph WNW1.9 kmh WNW 5.8 mph9.3 kmh 30.30 in1026.1 mb - 0.00 in0.0 mm 0.00 in0.0 mm
03:00 PM 36.5°F2.5°C 18.6°F-7.4°C 48% Calm Calm 2.3 mph3.7 kmh 30.30 in1026.1 mb - 0.00 in0.0 mm 0.00 in0.0 mm
03:10 PM 36.4°F2.4°C 19.5°F-6.9°C 50% 3.5 mph WSW5.6 kmh WSW 5.8 mph9.3 kmh 30.30 in1026.1 mb - 0.00 in0.0 mm 0.00 in0.0 mm
03:20 PM 36.2°F2.3°C 19.8°F-6.8°C 51% Calm Calm -- 30.29 in1025.7 mb - 0.00 in0.0 mm 0.00 in0.0 mm
03:30 PM 35.5°F1.9°C 20.4°F-6.4°C 54% 1.2 mph SW1.9 kmh SW 3.5 mph5.6 kmh 30.29 in1025.7 mb - 0.00 in0.0 mm 0.00 in0.0 mm
03:40 PM 35.2°F1.8°C 21.5°F-5.8°C 57% 1.2 mph SW1.9 kmh SW 3.5 mph5.6 kmh 30.29 in1025.7 mb - 0.00 in0.0 mm 0.00 in0.0 mm
03:50 PM 35.0°F1.7°C 21.7°F-5.7°C 58% Calm Calm -- 30.29 in1025.7 mb - 0.00 in0.0 mm 0.00 in0.0 mm
04:00 PM 35.1°F1.7°C 21.8°F-5.7°C 58% 2.3 mph WSW3.7 kmh WSW 4.6 mph7.4 kmh 30.28 in1025.4 mb - 0.00 in0.0 mm 0.00 in0.0 mm
04:10 PM 34.9°F1.6°C 22.0°F-5.6°C 59% Calm Calm -- 30.28 in1025.4 mb - 0.00 in0.0 mm 0.00 in0.0 mm
04:20 PM 34.5°F1.4°C 22.0°F-5.6°C 60% Calm Calm -- 30.27 in1025.1 mb - 0.00 in0.0 mm 0.00 in0.0 mm
04:30 PM 34.5°F1.4°C 22.0°F-5.6°C 60% Calm Calm 4.6 mph7.4 kmh 30.28 in1025.4 mb - 0.00 in0.0 mm 0.00 in0.0 mm
04:40 PM 34.5°F1.4°C 22.0°F-5.6°C 60% Calm Calm -- 30.29 in1025.7 mb - 0.00 in0.0 mm 0.00 in0.0 mm
04:50 PM 34.3°F1.3°C 22.2°F-5.4°C 61% Calm Calm -- 30.29 in1025.7 mb - 0.00 in0.0 mm 0.00 in0.0 mm
05:00 PM 34.2°F1.2°C 23.3°F-4.8°C 64% 3.5 mph WSW5.6 kmh WSW 5.8 mph9.3 kmh 30.29 in1025.7 mb - 0.00 in0.0 mm 0.00 in0.0 mm
05:10 PM 33.8°F1.0°C 24.0°F-4.4°C 67% 1.2 mph SW1.9 kmh SW 3.5 mph5.6 kmh 30.29 in1025.7 mb - 0.00 in0.0 mm 0.00 in0.0 mm
05:20 PM 33.4°F0.8°C 25.0°F-3.9°C 71% 1.2 mph WSW1.9 kmh WSW 3.5 mph5.6 kmh 30.29 in1025.7 mb - 0.00 in0.0 mm 0.00 in0.0 mm
05:30 PM 33.1°F0.6°C 25.7°F-3.5°C 74% Calm Calm -- 30.28 in1025.4 mb - 0.00 in0.0 mm 0.00 in0.0 mm
05:40 PM 32.7°F0.4°C 25.7°F-3.5°C 75% Calm Calm -- 30.28 in1025.4 mb - 0.00 in0.0 mm 0.00 in0.0 mm
05:50 PM 32.6°F0.3°C 25.9°F-3.4°C 76% Calm Calm -- 30.28 in1025.4 mb - 0.00 in0.0 mm 0.00 in0.0 mm
06:00 PM 32.4°F0.2°C 25.7°F-3.5°C 76% Calm Calm -- 30.27 in1025.1 mb - 0.00 in0.0 mm 0.00 in0.0 mm
06:10 PM 32.3°F0.2°C 25.9°F-3.4°C 77% Calm Calm -- 30.27 in1025.1 mb - 0.00 in0.0 mm 0.00 in0.0 mm
06:20 PM 32.3°F0.2°C 25.9°F-3.4°C 77% Calm Calm -- 30.27 in1025.1 mb - 0.00 in0.0 mm 0.00 in0.0 mm
06:30 PM 32.3°F0.2°C 26.2°F-3.2°C 78% Calm Calm -- 30.27 in1025.1 mb - 0.00 in0.0 mm 0.00 in0.0 mm
06:40 PM 32.3°F0.2°C 26.2°F-3.2°C 78% Calm Calm -- 30.27 in1025.1 mb - 0.00 in0.0 mm 0.00 in0.0 mm
06:50 PM 32.2°F0.1°C 26.1°F-3.3°C 78% Calm Calm -- 30.26 in1024.7 mb - 0.00 in0.0 mm 0.00 in0.0 mm
07:00 PM 32.1°F0.1°C 25.7°F-3.5°C 77% Calm Calm -- 30.26 in1024.7 mb - 0.00 in0.0 mm 0.00 in0.0 mm
07:10 PM 32.1°F0.1°C 26.0°F-3.3°C 78% Calm Calm -- 30.26 in1024.7 mb - 0.00 in0.0 mm 0.00 in0.0 mm
07:20 PM 32.2°F0.1°C 26.1°F-3.3°C 78% 1.2 mph E1.9 kmh E 2.3 mph3.7 kmh 30.26 in1024.7 mb - 0.00 in0.0 mm 0.00 in0.0 mm
07:30 PM 32.3°F0.2°C 26.2°F-3.2°C 78% Calm Calm -- 30.26 in1024.7 mb - 0.00 in0.0 mm 0.00 in0.0 mm
07:40 PM 32.2°F0.1°C 26.1°F-3.3°C 78% Calm Calm -- 30.26 in1024.7 mb - 0.00 in0.0 mm 0.00 in0.0 mm
07:50 PM 32.2°F0.1°C 26.1°F-3.3°C 78% Calm Calm -- 30.26 in1024.7 mb - 0.00 in0.0 mm 0.00 in0.0 mm
08:00 PM 32.2°F0.1°C 26.1°F-3.3°C 78% Calm Calm -- 30.26 in1024.7 mb - 0.00 in0.0 mm 0.00 in0.0 mm
08:10 PM 32.1°F0.1°C 26.3°F-3.2°C 79% Calm Calm -- 30.26 in1024.7 mb - 0.00 in0.0 mm 0.00 in0.0 mm
08:20 PM 32.1°F0.1°C 26.3°F-3.2°C 79% Calm Calm -- 30.26 in1024.7 mb - 0.00 in0.0 mm 0.00 in0.0 mm
08:30 PM 32.0°F0.0°C 26.3°F-3.2°C 79% Calm Calm -- 30.26 in1024.7 mb - 0.00 in0.0 mm 0.00 in0.0 mm
08:40 PM 32.0°F0.0°C 26.5°F-3.1°C 80% Calm Calm -- 30.26 in1024.7 mb - 0.00 in0.0 mm 0.00 in0.0 mm
08:50 PM 32.0°F0.0°C 26.5°F-3.1°C 80% Calm Calm -- 30.26 in1024.7 mb - 0.00 in0.0 mm 0.00 in0.0 mm
09:00 PM 31.9°F-0.1°C 26.4°F-3.1°C 80% Calm Calm -- 30.25 in1024.4 mb - 0.00 in0.0 mm 0.00 in0.0 mm
09:10 PM 31.9°F-0.1°C 26.1°F-3.3°C 79% Calm Calm -- 30.25 in1024.4 mb - 0.00 in0.0 mm 0.00 in0.0 mm
09:20 PM 31.8°F-0.1°C 26.0°F-3.3°C 79% 2.3 mph ESE3.7 kmh ESE 3.5 mph5.6 kmh 30.25 in1024.4 mb - 0.00 in0.0 mm 0.00 in0.0 mm
09:30 PM 31.8°F-0.1°C 26.0°F-3.3°C 79% Calm Calm -- 30.25 in1024.4 mb - 0.00 in0.0 mm 0.00 in0.0 mm
09:40 PM 31.8°F-0.1°C 26.4°F-3.1°C 80% Calm Calm -- 30.25 in1024.4 mb - 0.00 in0.0 mm 0.00 in0.0 mm
09:50 PM 31.8°F-0.1°C 26.3°F-3.2°C 80% Calm Calm 3.5 mph5.6 kmh 30.25 in1024.4 mb - 0.00 in0.0 mm 0.00 in0.0 mm
10:00 PM 31.8°F-0.1°C 26.0°F-3.3°C 79% Calm Calm -- 30.25 in1024.4 mb - 0.00 in0.0 mm 0.00 in0.0 mm
10:10 PM 31.9°F-0.1°C 26.1°F-3.3°C 79% Calm Calm -- 30.25 in1024.4 mb - 0.00 in0.0 mm 0.00 in0.0 mm
10:20 PM 31.9°F-0.1°C 26.1°F-3.3°C 79% Calm Calm -- 30.24 in1024.0 mb - 0.00 in0.0 mm 0.00 in0.0 mm
10:30 PM 31.8°F-0.1°C 26.0°F-3.3°C 79% Calm Calm -- 30.24 in1024.0 mb - 0.00 in0.0 mm 0.00 in0.0 mm
10:40 PM 31.9°F-0.1°C 26.1°F-3.3°C 79% Calm Calm -- 30.24 in1024.0 mb - 0.00 in0.0 mm 0.00 in0.0 mm
10:50 PM 31.9°F-0.1°C 26.1°F-3.3°C 79% Calm Calm 2.3 mph3.7 kmh 30.24 in1024.0 mb - 0.00 in0.0 mm 0.00 in0.0 mm
11:00 PM 31.9°F-0.1°C 26.1°F-3.3°C 79% Calm Calm 2.3 mph3.7 kmh 30.23 in1023.7 mb - 0.00 in0.0 mm 0.00 in0.0 mm
11:10 PM 31.9°F-0.1°C 26.1°F-3.3°C 79% Calm Calm -- 30.23 in1023.7 mb - 0.00 in0.0 mm 0.00 in0.0 mm
11:20 PM 31.9°F-0.1°C 26.1°F-3.3°C 79% Calm Calm -- 30.23 in1023.7 mb - 0.00 in0.0 mm 0.00 in0.0 mm
11:30 PM 31.9°F-0.1°C 26.1°F-3.3°C 79% Calm Calm -- 30.23 in1023.7 mb - 0.00 in0.0 mm 0.00 in0.0 mm
11:40 PM 31.8°F-0.1°C 25.7°F-3.5°C 78% Calm Calm -- 30.22 in1023.4 mb - 0.00 in0.0 mm 0.00 in0.0 mm
11:50 PM 31.8°F-0.1°C 25.7°F-3.5°C 78% Calm Calm -- 30.22 in1023.4 mb - 0.00 in0.0 mm 0.00 in0.0 mm